Time;durP1;ratioP1;P1;durP2;ratioP2;P2;SDS_P1;SDS_P2;PMS_P1;PMS_P2;Temp;Humidity;BMP_temperature;BMP_pressure;BME280_temperature;BME280_humidity;BME280_pressure;Samples;Min_cycle;Max_cycle;Signal;HPM_P1;HPM_P2
2022/08/29 00:01:04;;;;;;;;;;;15.50;99.90;;;;;;5064824;28;19931;-69
2022/08/29 00:03:30;;;;;;;;;;;15.40;99.90;;;;;;5063785;28;20399;-69
2022/08/29 00:05:57;;;;;;;;;;;15.40;99.90;;;;;;5084856;28;19992;-69
2022/08/29 00:08:24;;;;;;;;;;;15.40;99.90;;;;;;5068795;28;20419;-69
2022/08/29 00:10:51;;;;;;;;;;;15.30;99.90;;;;;;5066044;28;19925;-68
2022/08/29 00:13:17;;;;;;;;;;;15.30;99.90;;;;;;5067484;28;19931;-68
2022/08/29 00:15:44;;;;;;;;;;;15.20;99.90;;;;;;5061568;28;20003;-69
2022/08/29 00:18:12;;;;;;;;;;;15.20;99.90;;;;;;5060801;28;19931;-69
2022/08/29 00:20:39;;;;;;;;;;;15.20;99.90;;;;;;5069553;28;19933;-68
2022/08/29 00:23:06;;;;;;;;;;;15.10;99.90;;;;;;5068533;28;20019;-68
2022/08/29 00:25:33;;;;;;;;;;;15.10;99.90;;;;;;5068859;28;19924;-67
2022/08/29 00:28:00;;;;;;;;;;;15.10;99.90;;;;;;5066064;28;19924;-68
2022/08/29 00:30:26;;;;;;;;;;;15.10;99.90;;;;;;5054316;28;19987;-68
2022/08/29 00:32:53;;;;;;;;;;;15.00;99.90;;;;;;5067004;28;20413;-69
2022/08/29 00:35:20;;;;;;;;;;;;;;;;;;5064338;28;20397;-69
2022/08/29 00:37:50;;;;;;;;;;;15.00;99.90;;;;;;5066508;28;19959;-69
2022/08/29 00:40:18;;;;;;;;;;;14.90;99.90;;;;;;5066729;28;20018;-68
2022/08/29 00:42:45;;;;;;;;;;;14.80;99.90;;;;;;5063903;28;19995;-69
2022/08/29 00:45:13;;;;;;;;;;;14.80;99.90;;;;;;5059234;28;19971;-68
2022/08/29 00:47:43;;;;;;;;;;;14.80;99.90;;;;;;5063605;28;20011;-68
2022/08/29 00:50:13;;;;;;;;;;;14.80;99.90;;;;;;5065735;28;20371;-68
2022/08/29 00:52:40;;;;;;;;;;;14.70;99.90;;;;;;5067710;28;19931;-68
2022/08/29 00:55:11;;;;;;;;;;;14.70;99.90;;;;;;5066304;28;19924;-68
2022/08/29 00:57:39;;;;;;;;;;;14.70;99.90;;;;;;5067941;28;19924;-68
2022/08/29 01:00:07;;;;;;;;;;;14.70;99.90;;;;;;5072550;28;19925;-68
2022/08/29 01:02:33;;;;;;;;;;;14.70;99.90;;;;;;5064873;28;20019;-68
2022/08/29 01:05:00;;;;;;;;;;;14.60;99.90;;;;;;5062310;28;19929;-68
2022/08/29 01:07:27;;;;;;;;;;;14.60;99.90;;;;;;5072756;28;19924;-69
2022/08/29 01:09:54;;;;;;;;;;;14.50;99.90;;;;;;5064734;28;19931;-69
2022/08/29 01:12:22;;;;;;;;;;;14.50;99.90;;;;;;5070526;28;20370;-69
2022/08/29 01:14:51;;;;;;;;;;;14.50;99.90;;;;;;5067762;28;20299;-68
2022/08/29 01:17:19;;;;;;;;;;;14.50;99.90;;;;;;5066764;28;20013;-69
2022/08/29 01:19:50;;;;;;;;;;;14.40;99.90;;;;;;5072247;28;20019;-68
2022/08/29 01:22:22;;;;;;;;;;;14.40;99.90;;;;;;5069953;28;20024;-68
2022/08/29 01:24:52;;;;;;;;;;;14.30;99.90;;;;;;5062940;28;20035;-68
2022/08/29 01:27:21;;;;;;;;;;;14.30;99.90;;;;;;5065492;28;20028;-68
2022/08/29 01:29:48;;;;;;;;;;;14.30;99.90;;;;;;5071056;28;19924;-68
2022/08/29 01:32:15;;;;;;;;;;;14.30;99.90;;;;;;5067690;28;19932;-68
2022/08/29 01:34:42;;;;;;;;;;;14.30;99.90;;;;;;5067420;28;20025;-68
2022/08/29 01:37:10;;;;;;;;;;;14.20;99.90;;;;;;5061070;28;20367;-68
2022/08/29 01:39:39;;;;;;;;;;;14.10;99.90;;;;;;5070227;28;20076;-68
2022/08/29 01:42:09;;;;;;;;;;;14.10;99.90;;;;;;5068034;28;20413;-68
2022/08/29 01:44:36;;;;;;;;;;;14.10;99.90;;;;;;5060401;28;19978;-69
2022/08/29 01:47:04;;;;;;;;;;;14.10;99.90;;;;;;5059965;28;19925;-69
2022/08/29 01:49:33;;;;;;;;;;;14.10;99.90;;;;;;5070389;28;19932;-69
2022/08/29 01:52:00;;;;;;;;;;;14.00;99.90;;;;;;5062370;28;20613;-68
2022/08/29 01:54:26;;;;;;;;;;;14.10;99.90;;;;;;5066012;28;19960;-68
2022/08/29 01:56:53;;;;;;;;;;;14.10;99.90;;;;;;5057230;28;19932;-68
2022/08/29 01:59:22;;;;;;;;;;;14.10;99.90;;;;;;5054488;28;20346;-68
2022/08/29 02:01:51;;;;;;;;;;;14.10;99.90;;;;;;5061481;28;19971;-68
2022/08/29 02:04:18;;;;;;;;;;;14.00;99.90;;;;;;5059111;28;20016;-68
2022/08/29 02:06:45;;;;;;;;;;;;;;;;;;5058467;28;19932;-68
2022/08/29 02:09:12;;;;;;;;;;;;;;;;;;5066324;28;19924;-69
2022/08/29 02:11:39;;;;;;;;;;;;;;;;;;5064966;28;20023;-68
2022/08/29 02:14:06;;;;;;;;;;;13.90;99.90;;;;;;5056354;28;20451;-69
2022/08/29 02:16:34;;;;;;;;;;;13.90;99.90;;;;;;5056644;28;19934;-68
2022/08/29 02:19:01;;;;;;;;;;;13.90;99.90;;;;;;5069275;28;19982;-68
2022/08/29 02:21:29;;;;;;;;;;;13.80;99.90;;;;;;5070503;28;20023;-68
2022/08/29 02:23:56;;;;;;;;;;;13.90;99.90;;;;;;5069036;28;20023;-68
2022/08/29 02:26:23;;;;;;;;;;;13.80;99.90;;;;;;5070086;28;20442;-68
2022/08/29 02:28:50;;;;;;;;;;;13.80;99.90;;;;;;5068543;28;20296;-68
2022/08/29 02:31:17;;;;;;;;;;;13.80;99.90;;;;;;5055317;28;19928;-68
2022/08/29 02:33:45;;;;;;;;;;;13.40;99.90;;;;;;5054863;28;19925;-68
2022/08/29 02:36:12;;;;;;;;;;;13.80;99.90;;;;;;5068228;28;20027;-68
2022/08/29 02:38:39;;;;;;;;;;;13.80;99.90;;;;;;5065734;28;19925;-68
2022/08/29 02:41:06;;;;;;;;;;;13.80;99.90;;;;;;5060603;28;20015;-68
2022/08/29 02:43:33;;;;;;;;;;;13.80;99.90;;;;;;5054818;28;19925;-68
2022/08/29 02:46:00;;;;;;;;;;;13.80;99.90;;;;;;5054335;28;20020;-68
2022/08/29 02:48:27;;;;;;;;;;;13.80;99.90;;;;;;5067092;28;19971;-68
2022/08/29 02:50:57;;;;;;;;;;;13.80;99.90;;;;;;5054928;28;19925;-68
2022/08/29 02:53:25;;;;;;;;;;;13.80;99.90;;;;;;5063304;28;19998;-68
2022/08/29 02:55:52;;;;;;;;;;;13.80;99.90;;;;;;5053823;28;19929;-68
2022/08/29 02:58:19;;;;;;;;;;;13.80;99.90;;;;;;5064358;28;19925;-68
2022/08/29 03:00:46;;;;;;;;;;;13.80;99.90;;;;;;5057924;28;19971;-68
2022/08/29 03:03:12;;;;;;;;;;;13.90;99.90;;;;;;5051849;28;19924;-68
2022/08/29 03:05:39;;;;;;;;;;;13.90;99.90;;;;;;5051481;28;20379;-68
2022/08/29 03:08:08;;;;;;;;;;;13.90;99.90;;;;;;5065370;28;20011;-68
2022/08/29 03:10:35;;;;;;;;;;;13.90;99.90;;;;;;5066716;28;20026;-68
2022/08/29 03:13:02;;;;;;;;;;;13.90;99.90;;;;;;5061155;28;20470;-68
2022/08/29 03:15:29;;;;;;;;;;;13.90;99.90;;;;;;5055462;28;20371;-68
2022/08/29 03:17:55;;;;;;;;;;;13.90;99.90;;;;;;5065655;28;19932;-68
2022/08/29 03:20:23;;;;;;;;;;;13.90;99.90;;;;;;5070264;28;19924;-68
2022/08/29 03:22:51;;;;;;;;;;;14.00;99.90;;;;;;5068224;28;19999;-68
2022/08/29 03:25:20;;;;;;;;;;;13.90;99.90;;;;;;5070143;28;19928;-68
2022/08/29 03:27:46;;;;;;;;;;;13.90;99.90;;;;;;5057654;28;20519;-68
2022/08/29 03:30:14;;;;;;;;;;;13.80;99.90;;;;;;5065695;28;20014;-68
2022/08/29 03:32:41;;;;;;;;;;;13.80;99.90;;;;;;5059889;28;19971;-68
2022/08/29 03:35:09;;;;;;;;;;;13.80;99.90;;;;;;5063156;28;19931;-69
2022/08/29 03:37:36;;;;;;;;;;;13.70;99.90;;;;;;5060007;28;20015;-69
2022/08/29 03:40:04;;;;;;;;;;;13.90;99.90;;;;;;5061013;28;20019;-69
2022/08/29 03:42:32;;;;;;;;;;;13.70;99.90;;;;;;5062762;28;19936;-68
2022/08/29 03:44:59;;;;;;;;;;;13.70;99.90;;;;;;5058852;28;19924;-68
2022/08/29 03:47:25;;;;;;;;;;;13.60;99.90;;;;;;5051308;28;19925;-68
2022/08/29 03:49:52;;;;;;;;;;;13.70;99.90;;;;;;5062715;28;19924;-68
2022/08/29 03:52:19;;;;;;;;;;;13.70;99.90;;;;;;5061886;28;19928;-68
2022/08/29 03:54:46;;;;;;;;;;;13.70;99.90;;;;;;5055408;28;20023;-68
2022/08/29 03:57:12;;;;;;;;;;;13.60;99.90;;;;;;5063657;28;19925;-68
2022/08/29 03:59:41;;;;;;;;;;;13.60;99.90;;;;;;5056256;28;19970;-68
2022/08/29 04:02:08;;;;;;;;;;;13.50;99.90;;;;;;5066319;28;19924;-68
2022/08/29 04:07:19;;;;;;;;;;;13.60;99.90;;;;;;5060913;28;20456;-68
2022/08/29 04:09:45;;;;;;;;;;;13.50;99.90;;;;;;5066241;28;20019;-68
2022/08/29 04:12:12;;;;;;;;;;;13.60;99.90;;;;;;5057241;28;19925;-68
2022/08/29 04:14:41;;;;;;;;;;;13.60;99.90;;;;;;5056639;28;19931;-68
2022/08/29 04:17:09;;;;;;;;;;;13.60;99.90;;;;;;5053057;28;19924;-68
2022/08/29 04:19:36;;;;;;;;;;;13.60;99.90;;;;;;5063617;28;19924;-68
2022/08/29 04:22:03;;;;;;;;;;;13.70;99.90;;;;;;5063065;28;19931;-68
2022/08/29 04:24:30;;;;;;;;;;;13.60;99.90;;;;;;5071635;28;20270;-68
2022/08/29 04:26:57;;;;;;;;;;;13.60;99.90;;;;;;5070217;28;20047;-69
2022/08/29 04:29:24;;;;;;;;;;;13.60;99.90;;;;;;5068072;28;19924;-69
2022/08/29 04:31:52;;;;;;;;;;;13.60;99.90;;;;;;5062578;28;19993;-68
2022/08/29 04:34:20;;;;;;;;;;;13.80;99.90;;;;;;5066860;28;19943;-69
2022/08/29 04:36:47;;;;;;;;;;;13.50;99.90;;;;;;5064963;28;19932;-69
2022/08/29 04:39:14;;;;;;;;;;;13.60;99.90;;;;;;5065349;28;19978;-68
2022/08/29 04:41:41;;;;;;;;;;;13.60;99.90;;;;;;5062331;28;19925;-68
2022/08/29 04:44:09;;;;;;;;;;;13.60;99.90;;;;;;5064431;28;20366;-69
2022/08/29 04:46:36;;;;;;;;;;;13.50;99.90;;;;;;5065645;28;20367;-69
2022/08/29 04:49:04;;;;;;;;;;;13.50;99.90;;;;;;5065697;28;19930;-69
2022/08/29 04:51:33;;;;;;;;;;;13.40;99.90;;;;;;5055761;28;19929;-69
2022/08/29 04:53:59;;;;;;;;;;;13.50;99.90;;;;;;5070549;28;20476;-69
2022/08/29 04:56:26;;;;;;;;;;;13.40;99.90;;;;;;5069946;28;19952;-69
2022/08/29 04:58:53;;;;;;;;;;;13.40;99.90;;;;;;5066815;28;19924;-71
2022/08/29 05:01:22;;;;;;;;;;;13.40;99.90;;;;;;5067469;28;20021;-69
2022/08/29 05:03:50;;;;;;;;;;;13.40;99.90;;;;;;5069155;28;19929;-70
2022/08/29 05:06:20;;;;;;;;;;;13.40;99.90;;;;;;5067467;28;19924;-69
2022/08/29 05:08:46;;;;;;;;;;;13.40;99.90;;;;;;5065849;28;19929;-69
2022/08/29 05:11:14;;;;;;;;;;;13.40;99.90;;;;;;5072108;28;19970;-70
2022/08/29 05:13:41;;;;;;;;;;;13.40;99.90;;;;;;5067686;28;19960;-69
2022/08/29 05:16:08;;;;;;;;;;;13.40;99.90;;;;;;5055670;28;19925;-69
2022/08/29 05:18:35;;;;;;;;;;;13.40;99.90;;;;;;5068160;28;19925;-69
2022/08/29 05:21:02;;;;;;;;;;;13.50;99.90;;;;;;5059088;28;20299;-69
2022/08/29 05:23:30;;;;;;;;;;;13.50;99.90;;;;;;5065215;28;19925;-69
2022/08/29 05:25:58;;;;;;;;;;;13.50;99.90;;;;;;5072685;28;19976;-70
2022/08/29 05:28:25;;;;;;;;;;;13.50;99.90;;;;;;5070411;28;19944;-69
2022/08/29 05:30:52;;;;;;;;;;;13.60;99.90;;;;;;5067123;28;19928;-70
2022/08/29 05:33:19;;;;;;;;;;;13.60;99.90;;;;;;5065710;28;19924;-69
2022/08/29 05:35:46;;;;;;;;;;;13.60;99.90;;;;;;5054483;28;20300;-70
2022/08/29 05:38:13;;;;;;;;;;;13.60;99.90;;;;;;5069718;28;20403;-69
2022/08/29 05:40:41;;;;;;;;;;;13.70;99.90;;;;;;5070020;28;20273;-69
2022/08/29 05:43:09;;;;;;;;;;;13.70;99.90;;;;;;5057933;28;19935;-69
2022/08/29 05:45:36;;;;;;;;;;;13.60;99.90;;;;;;5060266;28;19931;-69
2022/08/29 05:48:03;;;;;;;;;;;13.60;99.90;;;;;;5063765;28;20411;-70
2022/08/29 05:50:30;;;;;;;;;;;13.70;99.90;;;;;;5072319;28;20409;-70
2022/08/29 05:52:57;;;;;;;;;;;13.70;99.90;;;;;;5055491;28;20306;-70
2022/08/29 05:55:23;;;;;;;;;;;13.70;99.90;;;;;;5059420;28;19991;-70
2022/08/29 05:57:53;;;;;;;;;;;13.70;99.90;;;;;;5062816;28;19931;-70
2022/08/29 06:00:20;;;;;;;;;;;13.70;99.90;;;;;;5062902;28;20329;-70
2022/08/29 06:02:46;;;;;;;;;;;13.80;99.90;;;;;;5068549;28;19930;-70
2022/08/29 06:05:13;;;;;;;;;;;13.80;99.90;;;;;;5057485;28;20419;-69
2022/08/29 06:07:40;;;;;;;;;;;13.80;99.90;;;;;;5057560;28;20012;-70
2022/08/29 06:10:07;;;;;;;;;;;13.80;99.90;;;;;;5058538;28;19928;-70
2022/08/29 06:12:34;;;;;;;;;;;13.90;99.90;;;;;;5060796;28;19928;-70
2022/08/29 06:15:02;;;;;;;;;;;14.00;99.90;;;;;;5059985;28;19924;-70
2022/08/29 06:17:29;;;;;;;;;;;14.00;99.90;;;;;;5059659;28;20370;-71
2022/08/29 06:19:56;;;;;;;;;;;14.10;99.90;;;;;;5061985;28;19924;-71
2022/08/29 06:22:22;;;;;;;;;;;14.20;99.90;;;;;;5061554;28;19942;-71
2022/08/29 06:24:52;;;;;;;;;;;14.30;99.90;;;;;;5061030;28;19986;-70
2022/08/29 06:27:18;;;;;;;;;;;14.30;99.90;;;;;;5069390;28;19924;-70
2022/08/29 06:29:45;;;;;;;;;;;14.40;99.90;;;;;;5072156;28;19931;-70
2022/08/29 06:32:13;;;;;;;;;;;14.50;99.90;;;;;;5065352;28;19984;-70
2022/08/29 06:34:40;;;;;;;;;;;14.60;99.90;;;;;;5067059;28;20007;-69
2022/08/29 06:37:07;;;;;;;;;;;14.60;99.90;;;;;;5061691;28;21224;-69
2022/08/29 06:39:34;;;;;;;;;;;14.80;99.90;;;;;;5067795;28;20000;-69
2022/08/29 06:42:00;;;;;;;;;;;14.80;99.90;;;;;;5065527;28;19951;-70
2022/08/29 06:44:29;;;;;;;;;;;15.30;99.90;;;;;;5059047;28;20004;-69
2022/08/29 06:46:57;;;;;;;;;;;14.90;99.90;;;;;;5064245;28;19982;-70
2022/08/29 06:49:25;;;;;;;;;;;14.90;99.90;;;;;;5061052;28;19976;-70
2022/08/29 06:51:52;;;;;;;;;;;15.10;99.90;;;;;;5058808;28;20417;-70
2022/08/29 06:54:19;;;;;;;;;;;15.10;99.90;;;;;;5070037;28;20046;-70
2022/08/29 06:56:46;;;;;;;;;;;15.10;99.90;;;;;;5066697;28;19925;-70
2022/08/29 06:59:13;;;;;;;;;;;15.10;99.90;;;;;;5069590;28;19932;-70
2022/08/29 07:01:40;;;;;;;;;;;15.10;99.90;;;;;;5067804;28;19924;-70
2022/08/29 07:04:08;;;;;;;;;;;15.20;99.90;;;;;;5062671;28;19925;-70
2022/08/29 07:06:37;;;;;;;;;;;15.20;99.90;;;;;;5067073;28;20024;-70
2022/08/29 07:09:04;;;;;;;;;;;15.30;99.90;;;;;;5061153;28;19924;-70
2022/08/29 07:11:32;;;;;;;;;;;15.40;99.90;;;;;;5066501;28;19924;-70
2022/08/29 07:14:00;;;;;;;;;;;15.60;99.90;;;;;;5060122;28;20295;-70
2022/08/29 07:16:28;;;;;;;;;;;15.80;99.90;;;;;;5052620;28;19986;-70
2022/08/29 07:18:55;;;;;;;;;;;15.80;99.90;;;;;;5066054;28;19930;-70
2022/08/29 07:21:23;;;;;;;;;;;16.00;99.90;;;;;;5068999;28;19936;-67
2022/08/29 07:23:52;;;;;;;;;;;16.20;99.90;;;;;;5064537;28;20016;-67
2022/08/29 07:26:20;;;;;;;;;;;16.00;99.90;;;;;;5066220;28;19930;-68
2022/08/29 07:28:46;;;;;;;;;;;15.90;99.90;;;;;;5064598;28;19924;-68
2022/08/29 07:31:13;;;;;;;;;;;17.10;99.90;;;;;;5055062;28;20016;-68
2022/08/29 07:33:40;;;;;;;;;;;17.80;99.90;;;;;;5060263;28;19931;-68
2022/08/29 07:36:07;;;;;;;;;;;17.80;99.90;;;;;;5062310;28;19925;-68
2022/08/29 07:38:33;;;;;;;;;;;17.00;99.90;;;;;;5064919;28;19924;-69
2022/08/29 07:41:02;;;;;;;;;;;16.50;99.90;;;;;;5062320;28;20380;-68
2022/08/29 07:43:29;;;;;;;;;;;16.40;99.90;;;;;;5058119;28;19960;-68
2022/08/29 07:45:56;;;;;;;;;;;16.30;99.90;;;;;;5069921;28;20439;-69
2022/08/29 07:48:23;;;;;;;;;;;16.20;99.90;;;;;;5060069;28;20342;-68
2022/08/29 07:50:50;;;;;;;;;;;16.50;99.90;;;;;;5054468;28;19938;-69
2022/08/29 07:53:17;;;;;;;;;;;16.90;99.90;;;;;;5063393;28;20066;-68
2022/08/29 07:55:44;;;;;;;;;;;17.80;99.90;;;;;;5055396;28;20015;-68
2022/08/29 07:58:12;;;;;;;;;;;18.20;99.90;;;;;;5067705;28;19925;-68
2022/08/29 08:00:38;;;;;;;;;;;18.20;99.90;;;;;;5068539;28;19924;-68
2022/08/29 08:03:05;;;;;;;;;;;18.90;99.90;;;;;;5069906;28;20305;-68
2022/08/29 08:05:32;;;;;;;;;;;18.40;99.90;;;;;;5069513;28;19932;-68
2022/08/29 08:07:58;;;;;;;;;;;18.10;99.90;;;;;;5059094;28;20015;-67
2022/08/29 08:10:26;;;;;;;;;;;18.20;99.90;;;;;;5066039;28;19964;-68
2022/08/29 08:12:53;;;;;;;;;;;18.00;99.90;;;;;;5068083;28;19932;-68
2022/08/29 08:15:21;;;;;;;;;;;18.30;99.90;;;;;;5072109;28;19932;-67
2022/08/29 08:17:48;;;;;;;;;;;18.50;99.90;;;;;;5069121;28;19964;-68
2022/08/29 08:20:15;;;;;;;;;;;18.40;99.90;;;;;;5071693;28;19931;-68
2022/08/29 08:22:41;;;;;;;;;;;18.40;99.90;;;;;;5065589;28;20006;-68
2022/08/29 08:25:08;;;;;;;;;;;18.00;99.90;;;;;;5057197;28;20019;-68
2022/08/29 08:27:35;;;;;;;;;;;17.80;99.90;;;;;;5075558;28;19928;-69
2022/08/29 08:30:02;;;;;;;;;;;17.90;99.90;;;;;;5061422;28;19931;-68
2022/08/29 08:32:30;;;;;;;;;;;18.30;99.90;;;;;;5061569;28;19960;-69
2022/08/29 08:34:57;;;;;;;;;;;18.70;99.90;;;;;;5054006;28;20458;-69
2022/08/29 08:37:23;;;;;;;;;;;19.20;99.90;;;;;;5067897;28;20353;-69
2022/08/29 08:39:50;;;;;;;;;;;19.30;99.90;;;;;;5054523;28;20380;-69
2022/08/29 08:42:19;;;;;;;;;;;19.60;99.90;;;;;;5057563;28;19930;-68
2022/08/29 08:44:52;;;;;;;;;;;20.00;99.90;;;;;;5058687;28;20326;-69
2022/08/29 08:47:23;;;;;;;;;;;20.60;99.90;;;;;;5066305;28;20019;-68
2022/08/29 08:49:53;;;;;;;;;;;20.00;99.90;;;;;;5054320;28;20028;-68
2022/08/29 08:52:22;;;;;;;;;;;19.10;99.90;;;;;;5062159;28;19986;-68
2022/08/29 08:54:50;;;;;;;;;;;18.60;99.90;;;;;;5066509;28;19928;-68
2022/08/29 08:57:18;;;;;;;;;;;18.70;99.90;;;;;;5078581;28;19924;-67
2022/08/29 08:59:46;;;;;;;;;;;18.90;99.90;;;;;;5058722;28;19978;-68
2022/08/29 09:02:22;;;;;;;;;;;19.00;99.90;;;;;;5067360;28;19924;-67
2022/08/29 09:04:58;;;;;;;;;;;19.50;99.90;;;;;;5064624;28;19977;-68
2022/08/29 09:07:38;;;;;;;;;;;19.80;99.90;;;;;;5060233;28;19960;-68
2022/08/29 09:10:10;;;;;;;;;;;20.20;99.90;;;;;;5053152;28;19951;-67
2022/08/29 09:12:43;;;;;;;;;;;19.70;99.90;;;;;;5070271;28;19987;-68
2022/08/29 09:15:11;;;;;;;;;;;20.10;99.90;;;;;;5071511;28;19993;-67
2022/08/29 09:17:41;;;;;;;;;;;19.60;99.90;;;;;;5058137;28;19982;-67
2022/08/29 09:20:12;;;;;;;;;;;20.20;99.90;;;;;;5066119;28;20347;-67
2022/08/29 09:22:40;;;;;;;;;;;19.60;99.90;;;;;;5065124;28;19924;-68
2022/08/29 09:25:08;;;;;;;;;;;19.40;99.90;;;;;;5052795;28;20406;-68
2022/08/29 09:27:36;;;;;;;;;;;19.70;99.90;;;;;;5067895;28;19924;-68
2022/08/29 09:30:06;;;;;;;;;;;19.80;99.90;;;;;;5072829;28;20010;-67
2022/08/29 09:32:32;;;;;;;;;;;19.90;99.90;;;;;;5066738;28;19936;-67
2022/08/29 09:34:59;;;;;;;;;;;20.10;99.90;;;;;;5065100;28;19971;-68
2022/08/29 09:37:30;;;;;;;;;;;20.50;99.90;;;;;;5068597;28;20291;-68
2022/08/29 09:40:01;;;;;;;;;;;20.20;99.90;;;;;;5072368;28;19974;-68
2022/08/29 09:42:34;;;;;;;;;;;20.00;99.90;;;;;;5068789;28;20430;-67
2022/08/29 09:45:03;;;;;;;;;;;20.60;99.90;;;;;;5055164;28;19960;-68
2022/08/29 09:47:31;;;;;;;;;;;20.60;99.90;;;;;;5071611;28;19924;-69
2022/08/29 09:50:02;;;;;;;;;;;19.70;99.90;;;;;;5067262;28;20407;-68
2022/08/29 09:52:30;;;;;;;;;;;19.80;99.90;;;;;;5061094;28;19964;-68
2022/08/29 09:54:57;;;;;;;;;;;20.20;99.90;;;;;;5069112;28;20389;-69
2022/08/29 09:57:28;;;;;;;;;;;20.50;99.90;;;;;;5059292;28;19962;-68
2022/08/29 10:00:09;;;;;;;;;;;20.60;99.90;;;;;;5069491;28;19935;-69
2022/08/29 10:02:43;;;;;;;;;;;20.10;99.90;;;;;;5068464;28;19943;-68
2022/08/29 10:05:25;;;;;;;;;;;19.60;99.90;;;;;;5079150;28;20027;-69
2022/08/29 10:07:53;;;;;;;;;;;19.20;99.90;;;;;;5068519;28;19929;-69
2022/08/29 10:10:21;;;;;;;;;;;19.20;99.90;;;;;;5065561;28;20016;-68
2022/08/29 10:12:52;;;;;;;;;;;19.90;99.90;;;;;;5060195;28;20019;-68
2022/08/29 10:15:21;;;;;;;;;;;20.10;99.90;;;;;;5064033;28;20008;-69
2022/08/29 10:20:42;;;;;;;;;;;19.40;99.90;;;;;;5054327;28;20175;-68
2022/08/29 10:23:17;;;;;;;;;;;19.90;99.90;;;;;;5065682;28;19932;-69
2022/08/29 10:25:44;;;;;;;;;;;19.40;99.90;;;;;;5066765;28;19942;-69
2022/08/29 10:28:13;;;;;;;;;;;19.80;99.90;;;;;;5074120;28;20474;-69
2022/08/29 10:30:44;;;;;;;;;;;19.90;99.90;;;;;;5066370;28;20398;-68
2022/08/29 10:33:16;;;;;;;;;;;19.70;99.90;;;;;;5062971;28;19925;-69
2022/08/29 10:35:48;;;;;;;;;;;19.90;99.90;;;;;;5051037;28;19975;-68
2022/08/29 10:38:21;;;;;;;;;;;19.80;99.90;;;;;;5059171;28;20011;-68
2022/08/29 10:40:49;;;;;;;;;;;19.90;99.90;;;;;;5057467;28;19925;-68
2022/08/29 10:43:24;;;;;;;;;;;20.30;99.90;;;;;;5067612;28;20308;-68
2022/08/29 10:46:01;;;;;;;;;;;20.30;99.90;;;;;;5063039;28;19925;-68
2022/08/29 10:48:29;;;;;;;;;;;20.30;99.90;;;;;;5057051;28;19967;-69
2022/08/29 10:51:04;;;;;;;;;;;20.40;99.90;;;;;;5051783;28;19925;-69
2022/08/29 10:53:34;;;;;;;;;;;20.00;99.90;;;;;;5067852;28;20437;-68
2022/08/29 10:56:03;;;;;;;;;;;20.10;99.90;;;;;;5055369;28;20327;-69
2022/08/29 10:58:35;;;;;;;;;;;19.90;99.90;;;;;;5065704;28;20035;-68
2022/08/29 11:01:06;;;;;;;;;;;20.40;99.90;;;;;;5065258;28;19925;-69
2022/08/29 11:03:38;;;;;;;;;;;20.20;99.90;;;;;;5063982;28;20410;-68
2022/08/29 11:06:09;;;;;;;;;;;19.90;99.90;;;;;;5064850;28;19977;-68
2022/08/29 11:08:39;;;;;;;;;;;20.10;99.90;;;;;;5066403;28;20398;-68
2022/08/29 11:11:06;;;;;;;;;;;20.40;99.90;;;;;;5060231;28;19928;-68
2022/08/29 11:13:37;;;;;;;;;;;20.50;99.90;;;;;;5058855;28;19963;-68
2022/08/29 11:16:09;;;;;;;;;;;20.50;99.90;;;;;;5067423;28;19978;-69
2022/08/29 11:18:39;;;;;;;;;;;20.50;99.90;;;;;;5065977;28;20316;-68
2022/08/29 11:21:09;;;;;;;;;;;20.80;99.90;;;;;;5052641;28;19929;-70
2022/08/29 11:23:39;;;;;;;;;;;20.70;99.90;;;;;;5070402;28;20445;-67
2022/08/29 11:26:09;;;;;;;;;;;20.20;99.90;;;;;;5054998;28;19932;-68
2022/08/29 11:28:38;;;;;;;;;;;20.50;99.90;;;;;;5050605;28;20307;-68
2022/08/29 11:31:10;;;;;;;;;;;20.60;99.90;;;;;;5073804;28;19971;-68
2022/08/29 11:33:41;;;;;;;;;;;20.70;99.90;;;;;;5063474;28;19925;-68
2022/08/29 11:36:24;;;;;;;;;;;20.80;99.90;;;;;;5064179;28;20405;-69
2022/08/29 11:39:04;;;;;;;;;;;20.70;99.90;;;;;;5049496;28;19924;-69
2022/08/29 11:41:32;;;;;;;;;;;21.20;98.90;;;;;;5063705;28;19928;-69
2022/08/29 11:44:08;;;;;;;;;;;20.70;98.10;;;;;;5064801;28;19928;-69
2022/08/29 11:46:40;;;;;;;;;;;21.00;97.50;;;;;;5064679;28;20019;-69
2022/08/29 11:49:22;;;;;;;;;;;21.20;96.70;;;;;;5067217;28;19963;-69
2022/08/29 11:51:52;;;;;;;;;;;21.10;96.50;;;;;;5044215;28;20014;-69
2022/08/29 11:54:38;;;;;;;;;;;20.90;96.80;;;;;;5068029;28;19924;-70
2022/08/29 11:57:23;;;;;;;;;;;21.20;95.80;;;;;;5052929;28;19929;-69
2022/08/29 11:59:58;;;;;;;;;;;21.00;96.10;;;;;;5050601;28;19929;-69
2022/08/29 12:02:39;;;;;;;;;;;21.10;95.80;;;;;;5055180;28;20329;-69
2022/08/29 12:05:08;;;;;;;;;;;21.50;95.10;;;;;;5065887;28;19951;-69
2022/08/29 12:07:36;;;;;;;;;;;21.00;94.70;;;;;;5065745;28;19955;-68
2022/08/29 12:10:05;;;;;;;;;;;21.20;94.30;;;;;;5059724;28;19925;-69
2022/08/29 12:12:39;;;;;;;;;;;21.00;93.70;;;;;;5057810;28;19940;-69
2022/08/29 12:15:24;;;;;;;;;;;21.20;94.70;;;;;;5059163;28;19929;-69
2022/08/29 12:17:53;;;;;;;;;;;21.20;91.80;;;;;;5050994;28;19925;-69
2022/08/29 12:20:32;;;;;;;;;;;21.40;91.30;;;;;;5064734;28;19987;-69
2022/08/29 12:23:00;;;;;;;;;;;21.50;90.50;;;;;;5066347;28;19997;-70
2022/08/29 12:25:33;;;;;;;;;;;21.50;91.00;;;;;;5064399;28;19929;-68
2022/08/29 12:28:01;;;;;;;;;;;21.20;90.90;;;;;;5062520;28;20017;-69
2022/08/29 12:30:29;;;;;;;;;;;21.30;91.40;;;;;;5064334;28;19924;-69
2022/08/29 12:33:04;;;;;;;;;;;21.30;90.20;;;;;;5051509;28;20391;-69
2022/08/29 12:35:53;;;;;;;;;;;21.50;90.10;;;;;;5064405;28;20357;-69
2022/08/29 12:38:27;;;;;;;;;;;21.50;90.60;;;;;;5061646;28;19925;-69
2022/08/29 12:41:11;;;;;;;;;;;21.80;90.30;;;;;;5059324;28;19924;-69
2022/08/29 12:43:41;;;;;;;;;;;22.00;87.10;;;;;;5063596;28;20038;-70
2022/08/29 12:46:10;;;;;;;;;;;21.70;87.40;;;;;;5066835;28;19978;-69
2022/08/29 12:48:44;;;;;;;;;;;21.80;85.70;;;;;;5066060;28;20023;-70
2022/08/29 12:51:31;;;;;;;;;;;21.80;85.40;;;;;;5070669;28;20015;-69
2022/08/29 12:53:58;;;;;;;;;;;21.90;84.40;;;;;;5066321;28;19924;-70
2022/08/29 12:56:25;;;;;;;;;;;22.00;82.10;;;;;;5048275;28;19951;-70
2022/08/29 12:58:54;;;;;;;;;;;21.80;79.80;;;;;;5067549;28;19925;-69
2022/08/29 13:01:25;;;;;;;;;;;21.80;78.70;;;;;;5059487;28;20034;-69
2022/08/29 13:04:00;;;;;;;;;;;22.30;79.60;;;;;;5070033;28;19924;-70
2022/08/29 13:06:27;;;;;;;;;;;22.60;82.20;;;;;;5064500;28;20000;-70
2022/08/29 13:08:54;;;;;;;;;;;21.80;81.50;;;;;;5062407;28;20044;-70
2022/08/29 13:11:22;;;;;;;;;;;22.80;78.50;;;;;;5059853;28;19931;-70
2022/08/29 13:13:49;;;;;;;;;;;22.80;77.50;;;;;;5067102;28;20018;-70
2022/08/29 13:16:23;;;;;;;;;;;22.40;77.30;;;;;;5053170;28;19932;-70
2022/08/29 13:18:50;;;;;;;;;;;22.20;79.20;;;;;;5053318;28;19925;-68
2022/08/29 13:21:22;;;;;;;;;;;22.20;77.30;;;;;;5072009;28;19944;-69
2022/08/29 13:23:57;;;;;;;;;;;22.30;80.60;;;;;;5070379;28;20367;-69
2022/08/29 13:26:26;;;;;;;;;;;22.70;79.20;;;;;;5071238;28;19928;-70
2022/08/29 13:28:53;;;;;;;;;;;22.60;79.20;;;;;;5068158;28;19955;-70
2022/08/29 13:31:22;;;;;;;;;;;22.70;79.40;;;;;;5072826;28;20015;-70
2022/08/29 13:34:09;;;;;;;;;;;22.50;76.60;;;;;;5067428;28;20403;-70
2022/08/29 13:36:39;;;;;;;;;;;22.80;77.10;;;;;;5062850;28;19978;-70
2022/08/29 13:39:28;;;;;;;;;;;22.70;78.40;;;;;;5064194;28;20426;-70
2022/08/29 13:42:18;;;;;;;;;;;22.80;75.30;;;;;;5057981;28;19933;-70
2022/08/29 13:44:54;;;;;;;;;;;22.80;74.40;;;;;;5046967;28;19931;-69
2022/08/29 13:47:22;;;;;;;;;;;23.00;74.00;;;;;;5066198;28;20402;-69
2022/08/29 13:49:49;;;;;;;;;;;23.00;72.20;;;;;;5074626;28;19986;-68
2022/08/29 13:52:18;;;;;;;;;;;22.90;68.90;;;;;;5066414;28;20267;-69
2022/08/29 13:54:44;;;;;;;;;;;22.40;71.60;;;;;;5063322;28;19932;-69
2022/08/29 13:57:12;;;;;;;;;;;22.60;72.30;;;;;;5061881;28;20020;-69
2022/08/29 13:59:39;;;;;;;;;;;22.60;74.00;;;;;;5058955;28;19963;-69
2022/08/29 14:02:07;;;;;;;;;;;22.80;71.00;;;;;;5067290;28;19986;-69
2022/08/29 14:04:34;;;;;;;;;;;22.70;72.40;;;;;;5057531;28;20411;-69
2022/08/29 14:07:01;;;;;;;;;;;22.90;72.00;;;;;;5063309;28;19955;-69
2022/08/29 14:09:31;;;;;;;;;;;23.20;70.00;;;;;;5065892;28;20399;-67
2022/08/29 14:11:58;;;;;;;;;;;23.00;69.70;;;;;;5067382;28;19932;-69
2022/08/29 14:14:25;;;;;;;;;;;23.20;69.50;;;;;;5054062;28;20051;-68
2022/08/29 14:16:52;;;;;;;;;;;22.90;68.80;;;;;;5056360;28;19925;-69
2022/08/29 14:19:19;;;;;;;;;;;23.30;66.30;;;;;;5053273;28;19924;-68
2022/08/29 14:21:46;;;;;;;;;;;23.10;65.00;;;;;;5051800;28;19968;-68
2022/08/29 14:24:12;;;;;;;;;;;23.50;65.10;;;;;;5066449;28;19932;-69
2022/08/29 14:26:40;;;;;;;;;;;23.30;64.40;;;;;;5061787;28;19950;-68
2022/08/29 14:29:07;;;;;;;;;;;23.30;63.20;;;;;;5057097;28;20013;-69
2022/08/29 14:31:34;;;;;;;;;;;23.20;62.90;;;;;;5061560;28;19924;-69
2022/08/29 14:34:01;;;;;;;;;;;23.10;63.30;;;;;;5067090;28;19972;-69